sensor_id;sensor_type;location;lat;lon;timestamp;P1;durP1;ratioP1;P2;durP2;ratioP2
72335;SDS011;62171;48.446;8.834;2022-07-21T00:01:50;13.52;;;10.10;;
72335;SDS011;62171;48.446;8.834;2022-07-21T00:04:17;15.57;;;9.45;;
72335;SDS011;62171;48.446;8.834;2022-07-21T00:06:43;13.07;;;9.77;;
72335;SDS011;62171;48.446;8.834;2022-07-21T00:09:09;12.90;;;9.57;;
72335;SDS011;62171;48.446;8.834;2022-07-21T00:11:35;14.45;;;9.23;;
72335;SDS011;62171;48.446;8.834;2022-07-21T00:14:01;13.18;;;9.13;;
72335;SDS011;62171;48.446;8.834;2022-07-21T00:16:26;13.45;;;10.18;;
72335;SDS011;62171;48.446;8.834;2022-07-21T00:18:52;14.27;;;10.02;;
72335;SDS011;62171;48.446;8.834;2022-07-21T00:21:17;13.90;;;9.38;;
72335;SDS011;62171;48.446;8.834;2022-07-21T00:23:43;12.73;;;9.70;;
72335;SDS011;62171;48.446;8.834;2022-07-21T00:26:08;13.27;;;9.50;;
72335;SDS011;62171;48.446;8.834;2022-07-21T00:28:34;14.93;;;9.38;;
72335;SDS011;62171;48.446;8.834;2022-07-21T00:30:59;15.93;;;9.40;;
72335;SDS011;62171;48.446;8.834;2022-07-21T00:33:24;14.00;;;9.40;;
72335;SDS011;62171;48.446;8.834;2022-07-21T00:35:50;12.32;;;9.05;;
72335;SDS011;62171;48.446;8.834;2022-07-21T00:38:15;13.07;;;9.30;;
72335;SDS011;62171;48.446;8.834;2022-07-21T00:40:40;12.55;;;9.95;;
72335;SDS011;62171;48.446;8.834;2022-07-21T00:43:06;13.55;;;9.55;;
72335;SDS011;62171;48.446;8.834;2022-07-21T00:45:31;13.98;;;10.43;;
72335;SDS011;62171;48.446;8.834;2022-07-21T00:47:57;14.20;;;10.00;;
72335;SDS011;62171;48.446;8.834;2022-07-21T00:50:22;10.60;;;8.20;;
72335;SDS011;62171;48.446;8.834;2022-07-21T00:52:48;11.20;;;8.55;;
72335;SDS011;62171;48.446;8.834;2022-07-21T00:55:15;13.40;;;9.18;;
72335;SDS011;62171;48.446;8.834;2022-07-21T00:57:42;13.25;;;8.40;;
72335;SDS011;62171;48.446;8.834;2022-07-21T01:00:10;10.57;;;8.13;;
72335;SDS011;62171;48.446;8.834;2022-07-21T01:02:37;11.75;;;7.78;;
72335;SDS011;62171;48.446;8.834;2022-07-21T01:05:04;10.70;;;8.52;;
72335;SDS011;62171;48.446;8.834;2022-07-21T01:07:31;12.93;;;8.48;;
72335;SDS011;62171;48.446;8.834;2022-07-21T01:09:56;11.48;;;7.80;;
72335;SDS011;62171;48.446;8.834;2022-07-21T01:12:22;10.38;;;7.60;;
72335;SDS011;62171;48.446;8.834;2022-07-21T01:14:48;12.25;;;7.75;;
72335;SDS011;62171;48.446;8.834;2022-07-21T01:17:13;13.27;;;8.00;;
72335;SDS011;62171;48.446;8.834;2022-07-21T01:19:38;10.48;;;7.40;;
72335;SDS011;62171;48.446;8.834;2022-07-21T01:22:04;10.80;;;7.55;;
72335;SDS011;62171;48.446;8.834;2022-07-21T01:24:30;9.95;;;7.18;;
72335;SDS011;62171;48.446;8.834;2022-07-21T01:26:55;12.13;;;8.57;;
72335;SDS011;62171;48.446;8.834;2022-07-21T01:29:21;12.52;;;8.73;;
72335;SDS011;62171;48.446;8.834;2022-07-21T01:31:47;9.68;;;6.90;;
72335;SDS011;62171;48.446;8.834;2022-07-21T01:34:13;9.45;;;7.50;;
72335;SDS011;62171;48.446;8.834;2022-07-21T01:36:39;10.40;;;7.65;;
72335;SDS011;62171;48.446;8.834;2022-07-21T01:39:05;10.18;;;7.63;;
72335;SDS011;62171;48.446;8.834;2022-07-21T01:41:49;9.05;;;7.30;;
72335;SDS011;62171;48.446;8.834;2022-07-21T01:44:15;12.48;;;7.57;;
72335;SDS011;62171;48.446;8.834;2022-07-21T01:46:45;12.02;;;7.47;;
72335;SDS011;62171;48.446;8.834;2022-07-21T01:49:13;10.05;;;7.60;;
72335;SDS011;62171;48.446;8.834;2022-07-21T01:51:39;10.75;;;8.13;;
72335;SDS011;62171;48.446;8.834;2022-07-21T01:54:05;13.95;;;8.50;;
72335;SDS011;62171;48.446;8.834;2022-07-21T01:56:35;14.00;;;8.52;;
72335;SDS011;62171;48.446;8.834;2022-07-21T01:59:02;16.05;;;8.15;;
72335;SDS011;62171;48.446;8.834;2022-07-21T02:01:29;11.80;;;8.02;;
72335;SDS011;62171;48.446;8.834;2022-07-21T02:03:56;10.93;;;8.88;;
72335;SDS011;62171;48.446;8.834;2022-07-21T02:06:23;11.50;;;7.68;;
72335;SDS011;62171;48.446;8.834;2022-07-21T02:08:49;14.07;;;8.95;;
72335;SDS011;62171;48.446;8.834;2022-07-21T02:11:15;10.40;;;8.05;;
72335;SDS011;62171;48.446;8.834;2022-07-21T02:13:41;10.63;;;7.25;;
72335;SDS011;62171;48.446;8.834;2022-07-21T02:16:06;9.77;;;7.32;;
72335;SDS011;62171;48.446;8.834;2022-07-21T02:18:32;12.65;;;7.60;;
72335;SDS011;62171;48.446;8.834;2022-07-21T02:20:57;13.23;;;8.68;;
72335;SDS011;62171;48.446;8.834;2022-07-21T02:23:23;12.27;;;7.65;;
72335;SDS011;62171;48.446;8.834;2022-07-21T02:25:50;12.30;;;8.32;;
72335;SDS011;62171;48.446;8.834;2022-07-21T02:28:17;11.70;;;7.90;;
72335;SDS011;62171;48.446;8.834;2022-07-21T02:30:43;11.32;;;8.10;;
72335;SDS011;62171;48.446;8.834;2022-07-21T02:33:08;11.75;;;7.82;;
72335;SDS011;62171;48.446;8.834;2022-07-21T02:35:34;11.20;;;7.20;;
72335;SDS011;62171;48.446;8.834;2022-07-21T02:37:59;13.52;;;7.82;;
72335;SDS011;62171;48.446;8.834;2022-07-21T02:40:25;12.40;;;8.25;;
72335;SDS011;62171;48.446;8.834;2022-07-21T02:42:51;15.55;;;8.52;;
72335;SDS011;62171;48.446;8.834;2022-07-21T02:45:17;12.18;;;8.80;;
72335;SDS011;62171;48.446;8.834;2022-07-21T02:50:18;15.25;;;8.60;;
72335;SDS011;62171;48.446;8.834;2022-07-21T02:52:44;18.27;;;11.82;;
72335;SDS011;62171;48.446;8.834;2022-07-21T02:55:10;13.18;;;8.45;;
72335;SDS011;62171;48.446;8.834;2022-07-21T02:57:36;14.50;;;9.68;;
72335;SDS011;62171;48.446;8.834;2022-07-21T03:00:03;13.50;;;8.65;;
72335;SDS011;62171;48.446;8.834;2022-07-21T03:02:30;12.05;;;8.45;;
72335;SDS011;62171;48.446;8.834;2022-07-21T03:04:55;12.52;;;8.05;;
72335;SDS011;62171;48.446;8.834;2022-07-21T03:07:21;14.25;;;8.63;;
72335;SDS011;62171;48.446;8.834;2022-07-21T03:09:46;10.27;;;8.05;;
72335;SDS011;62171;48.446;8.834;2022-07-21T03:12:11;13.20;;;8.93;;
72335;SDS011;62171;48.446;8.834;2022-07-21T03:14:37;13.65;;;9.20;;
72335;SDS011;62171;48.446;8.834;2022-07-21T03:17:02;15.18;;;9.13;;
72335;SDS011;62171;48.446;8.834;2022-07-21T03:19:28;12.35;;;8.38;;
72335;SDS011;62171;48.446;8.834;2022-07-21T03:21:53;13.30;;;8.05;;
72335;SDS011;62171;48.446;8.834;2022-07-21T03:24:19;13.80;;;9.52;;
72335;SDS011;62171;48.446;8.834;2022-07-21T03:26:44;14.18;;;8.60;;
72335;SDS011;62171;48.446;8.834;2022-07-21T03:29:09;12.05;;;9.23;;
72335;SDS011;62171;48.446;8.834;2022-07-21T03:31:35;12.00;;;9.10;;
72335;SDS011;62171;48.446;8.834;2022-07-21T03:34:00;14.00;;;9.05;;
72335;SDS011;62171;48.446;8.834;2022-07-21T03:36:26;12.80;;;9.68;;
72335;SDS011;62171;48.446;8.834;2022-07-21T03:38:51;12.63;;;8.65;;
72335;SDS011;62171;48.446;8.834;2022-07-21T03:41:17;13.70;;;8.57;;
72335;SDS011;62171;48.446;8.834;2022-07-21T03:43:42;11.02;;;8.45;;
72335;SDS011;62171;48.446;8.834;2022-07-21T03:46:07;12.25;;;8.70;;
72335;SDS011;62171;48.446;8.834;2022-07-21T03:48:33;12.90;;;8.90;;
72335;SDS011;62171;48.446;8.834;2022-07-21T03:50:58;18.58;;;9.70;;
72335;SDS011;62171;48.446;8.834;2022-07-21T03:53:23;19.55;;;10.07;;
72335;SDS011;62171;48.446;8.834;2022-07-21T03:55:49;15.20;;;10.43;;
72335;SDS011;62171;48.446;8.834;2022-07-21T03:58:14;17.25;;;9.88;;
72335;SDS011;62171;48.446;8.834;2022-07-21T04:00:41;13.80;;;9.27;;
72335;SDS011;62171;48.446;8.834;2022-07-21T04:03:08;13.45;;;9.73;;
72335;SDS011;62171;48.446;8.834;2022-07-21T04:05:34;12.75;;;8.80;;
72335;SDS011;62171;48.446;8.834;2022-07-21T04:08:00;17.80;;;10.85;;
72335;SDS011;62171;48.446;8.834;2022-07-21T04:10:27;17.65;;;11.20;;
72335;SDS011;62171;48.446;8.834;2022-07-21T04:12:54;13.70;;;10.02;;
72335;SDS011;62171;48.446;8.834;2022-07-21T04:15:20;13.70;;;10.15;;
72335;SDS011;62171;48.446;8.834;2022-07-21T04:17:46;22.30;;;10.27;;
72335;SDS011;62171;48.446;8.834;2022-07-21T04:20:13;35.03;;;9.90;;
72335;SDS011;62171;48.446;8.834;2022-07-21T04:22:39;15.13;;;9.27;;
72335;SDS011;62171;48.446;8.834;2022-07-21T04:25:06;15.43;;;9.48;;
72335;SDS011;62171;48.446;8.834;2022-07-21T04:27:32;18.52;;;10.35;;
72335;SDS011;62171;48.446;8.834;2022-07-21T04:29:58;19.13;;;9.93;;
72335;SDS011;62171;48.446;8.834;2022-07-21T04:32:24;28.52;;;10.32;;
72335;SDS011;62171;48.446;8.834;2022-07-21T04:34:49;49.83;;;10.35;;
72335;SDS011;62171;48.446;8.834;2022-07-21T04:37:14;115.72;;;13.38;;
72335;SDS011;62171;48.446;8.834;2022-07-21T04:39:40;201.77;;;13.85;;
72335;SDS011;62171;48.446;8.834;2022-07-21T04:42:05;124.75;;;11.63;;
72335;SDS011;62171;48.446;8.834;2022-07-21T04:44:31;115.15;;;13.43;;
72335;SDS011;62171;48.446;8.834;2022-07-21T04:46:56;60.35;;;10.93;;
72335;SDS011;62171;48.446;8.834;2022-07-21T04:49:22;35.15;;;10.20;;
72335;SDS011;62171;48.446;8.834;2022-07-21T04:51:48;32.58;;;10.15;;
72335;SDS011;62171;48.446;8.834;2022-07-21T04:54:13;18.02;;;9.43;;
72335;SDS011;62171;48.446;8.834;2022-07-21T04:56:40;23.77;;;9.77;;
72335;SDS011;62171;48.446;8.834;2022-07-21T04:59:06;31.20;;;11.43;;
72335;SDS011;62171;48.446;8.834;2022-07-21T05:01:31;17.90;;;10.27;;
72335;SDS011;62171;48.446;8.834;2022-07-21T05:03:57;14.55;;;10.20;;
72335;SDS011;62171;48.446;8.834;2022-07-21T05:06:22;29.20;;;10.85;;
72335;SDS011;62171;48.446;8.834;2022-07-21T05:08:47;34.90;;;9.88;;
72335;SDS011;62171;48.446;8.834;2022-07-21T05:11:13;15.77;;;8.98;;
72335;SDS011;62171;48.446;8.834;2022-07-21T05:13:38;29.48;;;10.35;;
72335;SDS011;62171;48.446;8.834;2022-07-21T05:16:04;19.38;;;10.02;;
72335;SDS011;62171;48.446;8.834;2022-07-21T05:18:30;37.67;;;10.05;;
72335;SDS011;62171;48.446;8.834;2022-07-21T05:20:57;11.70;;;8.73;;
72335;SDS011;62171;48.446;8.834;2022-07-21T05:23:22;12.60;;;9.52;;
72335;SDS011;62171;48.446;8.834;2022-07-21T05:25:48;18.33;;;9.93;;
72335;SDS011;62171;48.446;8.834;2022-07-21T05:28:13;14.75;;;9.75;;
72335;SDS011;62171;48.446;8.834;2022-07-21T05:30:38;13.75;;;8.77;;
72335;SDS011;62171;48.446;8.834;2022-07-21T05:33:04;14.88;;;9.00;;
72335;SDS011;62171;48.446;8.834;2022-07-21T05:35:29;13.45;;;8.75;;
72335;SDS011;62171;48.446;8.834;2022-07-21T05:37:55;11.52;;;8.70;;
72335;SDS011;62171;48.446;8.834;2022-07-21T05:40:21;12.40;;;10.02;;
72335;SDS011;62171;48.446;8.834;2022-07-21T05:42:46;16.35;;;10.05;;
72335;SDS011;62171;48.446;8.834;2022-07-21T05:45:12;13.63;;;10.65;;
72335;SDS011;62171;48.446;8.834;2022-07-21T05:47:37;15.25;;;9.90;;
72335;SDS011;62171;48.446;8.834;2022-07-21T05:50:04;15.35;;;10.07;;
72335;SDS011;62171;48.446;8.834;2022-07-21T05:52:30;21.20;;;15.00;;
72335;SDS011;62171;48.446;8.834;2022-07-21T05:54:56;15.73;;;10.90;;
72335;SDS011;62171;48.446;8.834;2022-07-21T05:57:21;14.82;;;9.50;;
72335;SDS011;62171;48.446;8.834;2022-07-21T05:59:47;14.25;;;10.32;;
72335;SDS011;62171;48.446;8.834;2022-07-21T06:02:12;14.00;;;9.35;;
72335;SDS011;62171;48.446;8.834;2022-07-21T06:04:38;13.70;;;9.80;;
72335;SDS011;62171;48.446;8.834;2022-07-21T06:07:04;12.98;;;9.77;;
72335;SDS011;62171;48.446;8.834;2022-07-21T06:09:29;12.45;;;8.75;;
72335;SDS011;62171;48.446;8.834;2022-07-21T06:11:55;14.40;;;10.00;;
72335;SDS011;62171;48.446;8.834;2022-07-21T06:14:20;17.17;;;10.90;;
72335;SDS011;62171;48.446;8.834;2022-07-21T06:16:46;14.45;;;9.55;;
72335;SDS011;62171;48.446;8.834;2022-07-21T06:19:11;15.35;;;9.77;;
72335;SDS011;62171;48.446;8.834;2022-07-21T06:21:36;15.40;;;10.43;;
72335;SDS011;62171;48.446;8.834;2022-07-21T06:24:02;12.95;;;9.05;;
72335;SDS011;62171;48.446;8.834;2022-07-21T06:26:27;13.20;;;8.98;;
72335;SDS011;62171;48.446;8.834;2022-07-21T06:28:53;13.50;;;10.55;;
72335;SDS011;62171;48.446;8.834;2022-07-21T06:31:19;12.63;;;10.18;;
72335;SDS011;62171;48.446;8.834;2022-07-21T06:33:45;11.35;;;9.82;;
72335;SDS011;62171;48.446;8.834;2022-07-21T06:36:10;13.45;;;9.48;;
72335;SDS011;62171;48.446;8.834;2022-07-21T06:38:35;13.68;;;8.82;;
72335;SDS011;62171;48.446;8.834;2022-07-21T06:41:01;11.55;;;9.10;;
72335;SDS011;62171;48.446;8.834;2022-07-21T06:43:26;15.50;;;11.25;;
72335;SDS011;62171;48.446;8.834;2022-07-21T06:45:52;9.30;;;7.68;;
72335;SDS011;62171;48.446;8.834;2022-07-21T06:48:17;10.45;;;7.28;;
72335;SDS011;62171;48.446;8.834;2022-07-21T06:50:43;10.82;;;7.65;;
72335;SDS011;62171;48.446;8.834;2022-07-21T06:53:09;8.68;;;6.97;;
72335;SDS011;62171;48.446;8.834;2022-07-21T06:55:35;13.45;;;6.68;;
72335;SDS011;62171;48.446;8.834;2022-07-21T07:00:35;9.85;;;6.75;;
72335;SDS011;62171;48.446;8.834;2022-07-21T07:03:01;8.88;;;6.85;;
72335;SDS011;62171;48.446;8.834;2022-07-21T07:05:26;7.65;;;6.18;;
72335;SDS011;62171;48.446;8.834;2022-07-21T07:07:53;9.85;;;6.30;;
72335;SDS011;62171;48.446;8.834;2022-07-21T07:10:18;8.52;;;6.85;;
72335;SDS011;62171;48.446;8.834;2022-07-21T07:12:44;9.25;;;6.68;;
72335;SDS011;62171;48.446;8.834;2022-07-21T07:15:09;8.90;;;6.13;;
72335;SDS011;62171;48.446;8.834;2022-07-21T07:17:35;9.57;;;6.63;;
72335;SDS011;62171;48.446;8.834;2022-07-21T07:20:00;10.68;;;6.70;;
72335;SDS011;62171;48.446;8.834;2022-07-21T07:22:26;7.65;;;6.63;;
72335;SDS011;62171;48.446;8.834;2022-07-21T07:24:51;8.85;;;7.20;;
72335;SDS011;62171;48.446;8.834;2022-07-21T07:27:17;7.38;;;6.30;;
72335;SDS011;62171;48.446;8.834;2022-07-21T07:29:42;8.98;;;6.90;;
72335;SDS011;62171;48.446;8.834;2022-07-21T07:32:07;7.75;;;6.47;;
72335;SDS011;62171;48.446;8.834;2022-07-21T07:34:33;7.80;;;6.28;;
72335;SDS011;62171;48.446;8.834;2022-07-21T07:36:58;7.45;;;6.32;;
72335;SDS011;62171;48.446;8.834;2022-07-21T07:39:24;7.28;;;6.10;;
72335;SDS011;62171;48.446;8.834;2022-07-21T07:41:49;9.90;;;6.57;;
72335;SDS011;62171;48.446;8.834;2022-07-21T07:44:14;9.20;;;6.75;;
72335;SDS011;62171;48.446;8.834;2022-07-21T07:46:40;8.57;;;6.25;;
72335;SDS011;62171;48.446;8.834;2022-07-21T07:49:05;8.23;;;6.55;;
72335;SDS011;62171;48.446;8.834;2022-07-21T07:51:30;8.00;;;6.25;;
72335;SDS011;62171;48.446;8.834;2022-07-21T07:53:56;8.48;;;6.30;;
72335;SDS011;62171;48.446;8.834;2022-07-21T07:56:21;7.20;;;6.22;;
72335;SDS011;62171;48.446;8.834;2022-07-21T07:58:47;7.63;;;6.25;;
72335;SDS011;62171;48.446;8.834;2022-07-21T08:01:12;8.30;;;6.20;;
72335;SDS011;62171;48.446;8.834;2022-07-21T08:03:38;8.52;;;6.15;;
72335;SDS011;62171;48.446;8.834;2022-07-21T08:06:04;7.30;;;6.18;;
72335;SDS011;62171;48.446;8.834;2022-07-21T08:08:31;8.40;;;6.35;;
72335;SDS011;62171;48.446;8.834;2022-07-21T08:10:57;7.43;;;5.93;;
72335;SDS011;62171;48.446;8.834;2022-07-21T08:13:22;7.32;;;5.80;;
72335;SDS011;62171;48.446;8.834;2022-07-21T08:15:48;8.15;;;6.32;;
72335;SDS011;62171;48.446;8.834;2022-07-21T08:18:14;8.73;;;5.78;;
72335;SDS011;62171;48.446;8.834;2022-07-21T08:20:40;6.90;;;5.15;;
72335;SDS011;62171;48.446;8.834;2022-07-21T08:23:06;8.82;;;5.60;;
72335;SDS011;62171;48.446;8.834;2022-07-21T08:25:32;6.78;;;5.40;;
72335;SDS011;62171;48.446;8.834;2022-07-21T08:27:58;7.55;;;5.53;;
72335;SDS011;62171;48.446;8.834;2022-07-21T08:30:23;6.13;;;4.78;;
72335;SDS011;62171;48.446;8.834;2022-07-21T08:32:49;7.45;;;5.57;;
72335;SDS011;62171;48.446;8.834;2022-07-21T08:35:14;6.93;;;4.97;;
72335;SDS011;62171;48.446;8.834;2022-07-21T08:37:40;6.75;;;5.03;;
72335;SDS011;62171;48.446;8.834;2022-07-21T08:40:07;9.70;;;5.90;;
72335;SDS011;62171;48.446;8.834;2022-07-21T08:42:34;7.72;;;4.95;;
72335;SDS011;62171;48.446;8.834;2022-07-21T08:45:00;6.65;;;5.05;;
72335;SDS011;62171;48.446;8.834;2022-07-21T08:47:26;6.90;;;4.93;;
72335;SDS011;62171;48.446;8.834;2022-07-21T08:49:51;6.15;;;5.40;;
72335;SDS011;62171;48.446;8.834;2022-07-21T08:52:18;6.25;;;5.00;;
72335;SDS011;62171;48.446;8.834;2022-07-21T08:54:44;8.25;;;5.55;;
72335;SDS011;62171;48.446;8.834;2022-07-21T08:57:09;7.18;;;5.57;;
72335;SDS011;62171;48.446;8.834;2022-07-21T08:59:35;8.18;;;5.57;;
72335;SDS011;62171;48.446;8.834;2022-07-21T09:02:01;10.70;;;6.28;;
72335;SDS011;62171;48.446;8.834;2022-07-21T09:04:33;7.93;;;7.03;;
72335;SDS011;62171;48.446;8.834;2022-07-21T09:07:04;7.95;;;5.68;;
72335;SDS011;62171;48.446;8.834;2022-07-21T09:09:31;6.57;;;5.63;;
72335;SDS011;62171;48.446;8.834;2022-07-21T09:12:00;7.55;;;5.50;;
72335;SDS011;62171;48.446;8.834;2022-07-21T09:14:31;6.55;;;4.95;;
72335;SDS011;62171;48.446;8.834;2022-07-21T09:16:59;6.47;;;5.35;;
72335;SDS011;62171;48.446;8.834;2022-07-21T09:19:27;6.10;;;5.38;;
72335;SDS011;62171;48.446;8.834;2022-07-21T09:21:56;6.43;;;5.22;;
72335;SDS011;62171;48.446;8.834;2022-07-21T09:24:24;9.25;;;5.80;;
72335;SDS011;62171;48.446;8.834;2022-07-21T09:26:58;7.93;;;5.30;;
72335;SDS011;62171;48.446;8.834;2022-07-21T09:29:25;5.93;;;5.32;;
72335;SDS011;62171;48.446;8.834;2022-07-21T09:31:50;6.35;;;5.15;;
72335;SDS011;62171;48.446;8.834;2022-07-21T09:34:16;6.63;;;5.10;;
72335;SDS011;62171;48.446;8.834;2022-07-21T09:36:56;6.28;;;4.85;;
72335;SDS011;62171;48.446;8.834;2022-07-21T09:42:14;6.30;;;4.75;;
72335;SDS011;62171;48.446;8.834;2022-07-21T09:47:23;6.38;;;4.95;;
72335;SDS011;62171;48.446;8.834;2022-07-21T09:49:50;6.15;;;5.00;;
72335;SDS011;62171;48.446;8.834;2022-07-21T09:52:24;8.13;;;4.60;;
72335;SDS011;62171;48.446;8.834;2022-07-21T09:54:53;5.38;;;4.65;;
72335;SDS011;62171;48.446;8.834;2022-07-21T09:57:19;7.07;;;4.47;;
72335;SDS011;62171;48.446;8.834;2022-07-21T09:59:46;8.32;;;5.13;;
72335;SDS011;62171;48.446;8.834;2022-07-21T10:02:17;5.47;;;4.90;;
72335;SDS011;62171;48.446;8.834;2022-07-21T10:07:41;5.88;;;4.30;;
72335;SDS011;62171;48.446;8.834;2022-07-21T10:10:09;5.13;;;3.97;;
72335;SDS011;62171;48.446;8.834;2022-07-21T10:12:35;5.03;;;4.30;;
72335;SDS011;62171;48.446;8.834;2022-07-21T10:15:00;6.45;;;4.45;;
72335;SDS011;62171;48.446;8.834;2022-07-21T10:17:26;5.10;;;4.20;;
72335;SDS011;62171;48.446;8.834;2022-07-21T10:25:24;5.78;;;4.10;;
72335;SDS011;62171;48.446;8.834;2022-07-21T10:30:38;6.55;;;4.47;;
72335;SDS011;62171;48.446;8.834;2022-07-21T10:33:15;5.78;;;3.88;;
72335;SDS011;62171;48.446;8.834;2022-07-21T10:35:43;5.03;;;3.92;;
72335;SDS011;62171;48.446;8.834;2022-07-21T10:38:30;4.82;;;4.32;;
72335;SDS011;62171;48.446;8.834;2022-07-21T10:40:59;5.68;;;3.80;;
72335;SDS011;62171;48.446;8.834;2022-07-21T10:43:35;4.68;;;3.58;;
72335;SDS011;62171;48.446;8.834;2022-07-21T10:46:02;4.47;;;3.63;;
72335;SDS011;62171;48.446;8.834;2022-07-21T10:51:24;4.35;;;3.55;;
72335;SDS011;62171;48.446;8.834;2022-07-21T10:54:14;5.13;;;3.53;;
72335;SDS011;62171;48.446;8.834;2022-07-21T10:56:41;6.18;;;4.10;;
72335;SDS011;62171;48.446;8.834;2022-07-21T10:59:06;4.07;;;3.45;;
72335;SDS011;62171;48.446;8.834;2022-07-21T11:01:32;4.57;;;3.42;;
72335;SDS011;62171;48.446;8.834;2022-07-21T11:06:41;5.63;;;3.78;;
72335;SDS011;62171;48.446;8.834;2022-07-21T11:09:11;5.10;;;4.20;;
72335;SDS011;62171;48.446;8.834;2022-07-21T11:14:34;3.97;;;3.58;;
72335;SDS011;62171;48.446;8.834;2022-07-21T11:17:01;4.13;;;3.35;;
72335;SDS011;62171;48.446;8.834;2022-07-21T11:19:40;5.97;;;3.45;;
72335;SDS011;62171;48.446;8.834;2022-07-21T11:22:33;4.10;;;3.20;;
72335;SDS011;62171;48.446;8.834;2022-07-21T11:25:00;4.05;;;3.10;;
72335;SDS011;62171;48.446;8.834;2022-07-21T11:27:28;4.90;;;3.28;;
72335;SDS011;62171;48.446;8.834;2022-07-21T11:29:56;3.83;;;3.25;;
72335;SDS011;62171;48.446;8.834;2022-07-21T11:32:24;3.72;;;3.17;;
72335;SDS011;62171;48.446;8.834;2022-07-21T11:37:27;3.97;;;2.90;;
72335;SDS011;62171;48.446;8.834;2022-07-21T11:39:56;3.35;;;3.05;;
72335;SDS011;62171;48.446;8.834;2022-07-21T11:42:21;5.03;;;3.65;;
72335;SDS011;62171;48.446;8.834;2022-07-21T11:44:47;4.40;;;3.40;;
72335;SDS011;62171;48.446;8.834;2022-07-21T11:47:13;3.58;;;3.03;;
72335;SDS011;62171;48.446;8.834;2022-07-21T11:49:40;4.85;;;3.17;;
72335;SDS011;62171;48.446;8.834;2022-07-21T11:52:07;4.78;;;3.15;;
72335;SDS011;62171;48.446;8.834;2022-07-21T11:54:44;3.97;;;3.17;;
72335;SDS011;62171;48.446;8.834;2022-07-21T11:57:12;4.68;;;3.17;;
72335;SDS011;62171;48.446;8.834;2022-07-21T11:59:39;4.88;;;2.92;;
72335;SDS011;62171;48.446;8.834;2022-07-21T12:02:11;3.55;;;3.13;;
72335;SDS011;62171;48.446;8.834;2022-07-21T12:04:48;4.05;;;3.03;;
72335;SDS011;62171;48.446;8.834;2022-07-21T12:10:14;3.60;;;2.53;;
72335;SDS011;62171;48.446;8.834;2022-07-21T12:12:40;3.67;;;2.97;;
72335;SDS011;62171;48.446;8.834;2022-07-21T12:17:47;5.15;;;3.45;;
72335;SDS011;62171;48.446;8.834;2022-07-21T12:20:16;3.70;;;3.10;;
72335;SDS011;62171;48.446;8.834;2022-07-21T12:22:52;3.55;;;3.03;;
72335;SDS011;62171;48.446;8.834;2022-07-21T12:25:28;3.08;;;2.78;;
72335;SDS011;62171;48.446;8.834;2022-07-21T12:27:59;4.05;;;3.22;;
72335;SDS011;62171;48.446;8.834;2022-07-21T12:30:31;2.90;;;2.58;;
72335;SDS011;62171;48.446;8.834;2022-07-21T12:35:33;3.25;;;2.50;;
72335;SDS011;62171;48.446;8.834;2022-07-21T12:38:18;3.08;;;2.75;;
72335;SDS011;62171;48.446;8.834;2022-07-21T12:40:48;2.92;;;2.58;;
72335;SDS011;62171;48.446;8.834;2022-07-21T12:43:18;3.78;;;2.85;;
72335;SDS011;62171;48.446;8.834;2022-07-21T12:45:47;5.28;;;3.05;;
72335;SDS011;62171;48.446;8.834;2022-07-21T12:48:15;4.60;;;3.08;;
72335;SDS011;62171;48.446;8.834;2022-07-21T12:50:45;14.55;;;13.10;;
72335;SDS011;62171;48.446;8.834;2022-07-21T12:53:23;10.95;;;9.25;;
72335;SDS011;62171;48.446;8.834;2022-07-21T12:55:48;4.15;;;3.03;;
72335;SDS011;62171;48.446;8.834;2022-07-21T12:58:14;3.78;;;3.38;;
72335;SDS011;62171;48.446;8.834;2022-07-21T13:00:39;3.90;;;2.85;;
72335;SDS011;62171;48.446;8.834;2022-07-21T13:03:04;4.13;;;3.28;;
72335;SDS011;62171;48.446;8.834;2022-07-21T13:05:30;5.35;;;4.40;;
72335;SDS011;62171;48.446;8.834;2022-07-21T13:07:55;4.10;;;3.05;;
72335;SDS011;62171;48.446;8.834;2022-07-21T13:10:21;6.00;;;4.22;;
72335;SDS011;62171;48.446;8.834;2022-07-21T13:12:46;2.90;;;2.53;;
72335;SDS011;62171;48.446;8.834;2022-07-21T13:15:12;3.13;;;2.83;;
72335;SDS011;62171;48.446;8.834;2022-07-21T13:17:38;2.83;;;2.60;;
72335;SDS011;62171;48.446;8.834;2022-07-21T13:20:04;3.05;;;2.75;;
72335;SDS011;62171;48.446;8.834;2022-07-21T13:22:30;2.92;;;2.65;;
72335;SDS011;62171;48.446;8.834;2022-07-21T13:24:56;3.08;;;2.78;;
72335;SDS011;62171;48.446;8.834;2022-07-21T13:27:21;3.00;;;2.70;;
72335;SDS011;62171;48.446;8.834;2022-07-21T13:29:46;5.78;;;5.18;;
72335;SDS011;62171;48.446;8.834;2022-07-21T13:32:12;3.13;;;2.80;;
72335;SDS011;62171;48.446;8.834;2022-07-21T13:34:37;3.25;;;2.78;;
72335;SDS011;62171;48.446;8.834;2022-07-21T13:37:03;4.60;;;3.00;;
72335;SDS011;62171;48.446;8.834;2022-07-21T13:39:28;2.88;;;2.47;;
72335;SDS011;62171;48.446;8.834;2022-07-21T13:41:54;3.08;;;2.75;;
72335;SDS011;62171;48.446;8.834;2022-07-21T13:44:21;2.85;;;2.63;;
72335;SDS011;62171;48.446;8.834;2022-07-21T13:46:46;4.53;;;3.00;;
72335;SDS011;62171;48.446;8.834;2022-07-21T13:49:12;4.97;;;3.30;;
72335;SDS011;62171;48.446;8.834;2022-07-21T13:51:37;4.00;;;2.60;;
72335;SDS011;62171;48.446;8.834;2022-07-21T13:54:03;3.00;;;2.50;;
72335;SDS011;62171;48.446;8.834;2022-07-21T13:56:28;2.97;;;2.67;;
72335;SDS011;62171;48.446;8.834;2022-07-21T13:58:54;4.18;;;3.00;;
72335;SDS011;62171;48.446;8.834;2022-07-21T14:01:20;3.67;;;3.00;;
72335;SDS011;62171;48.446;8.834;2022-07-21T14:03:46;5.30;;;2.58;;
72335;SDS011;62171;48.446;8.834;2022-07-21T14:06:12;3.60;;;2.83;;
72335;SDS011;62171;48.446;8.834;2022-07-21T14:08:38;3.17;;;2.63;;
72335;SDS011;62171;48.446;8.834;2022-07-21T14:11:04;4.32;;;2.88;;
72335;SDS011;62171;48.446;8.834;2022-07-21T14:13:31;3.20;;;2.90;;
72335;SDS011;62171;48.446;8.834;2022-07-21T14:15:57;3.30;;;2.70;;
72335;SDS011;62171;48.446;8.834;2022-07-21T14:18:23;2.60;;;2.40;;
72335;SDS011;62171;48.446;8.834;2022-07-21T14:20:48;2.90;;;2.60;;
72335;SDS011;62171;48.446;8.834;2022-07-21T14:23:17;6.65;;;2.70;;
72335;SDS011;62171;48.446;8.834;2022-07-21T14:25:44;3.10;;;2.78;;
72335;SDS011;62171;48.446;8.834;2022-07-21T14:28:09;3.67;;;2.95;;
72335;SDS011;62171;48.446;8.834;2022-07-21T14:30:35;3.13;;;2.83;;
72335;SDS011;62171;48.446;8.834;2022-07-21T14:33:00;3.90;;;2.88;;
72335;SDS011;62171;48.446;8.834;2022-07-21T14:35:26;3.50;;;3.05;;
72335;SDS011;62171;48.446;8.834;2022-07-21T14:37:52;3.08;;;2.78;;
72335;SDS011;62171;48.446;8.834;2022-07-21T14:40:18;3.95;;;3.03;;
72335;SDS011;62171;48.446;8.834;2022-07-21T14:42:44;3.78;;;2.50;;
72335;SDS011;62171;48.446;8.834;2022-07-21T14:45:12;3.15;;;2.85;;
72335;SDS011;62171;48.446;8.834;2022-07-21T14:47:38;4.32;;;2.90;;
72335;SDS011;62171;48.446;8.834;2022-07-21T14:50:03;3.45;;;2.72;;
72335;SDS011;62171;48.446;8.834;2022-07-21T14:52:29;3.15;;;2.85;;
72335;SDS011;62171;48.446;8.834;2022-07-21T14:54:54;4.03;;;3.00;;
72335;SDS011;62171;48.446;8.834;2022-07-21T14:57:20;4.43;;;2.88;;
72335;SDS011;62171;48.446;8.834;2022-07-21T14:59:45;3.30;;;2.80;;
72335;SDS011;62171;48.446;8.834;2022-07-21T15:02:11;3.13;;;2.42;;
72335;SDS011;62171;48.446;8.834;2022-07-21T15:04:36;3.10;;;2.80;;
72335;SDS011;62171;48.446;8.834;2022-07-21T15:07:02;3.35;;;2.83;;
72335;SDS011;62171;48.446;8.834;2022-07-21T15:09:27;2.88;;;2.58;;
72335;SDS011;62171;48.446;8.834;2022-07-21T15:11:53;2.92;;;2.53;;
72335;SDS011;62171;48.446;8.834;2022-07-21T15:14:18;4.22;;;2.60;;
72335;SDS011;62171;48.446;8.834;2022-07-21T15:16:43;2.85;;;2.60;;
72335;SDS011;62171;48.446;8.834;2022-07-21T15:19:09;3.10;;;2.80;;